sensor_id;sensor_type;location;lat;lon;timestamp;pressure;altitude;pressure_sealevel;temperature;humidity
21779;BME280;11050;52.222;20.916;2023-11-19T00:00:17;100802.84;;;2.76;100.00
21779;BME280;11050;52.222;20.916;2023-11-19T00:02:43;100803.69;;;2.76;100.00
21779;BME280;11050;52.222;20.916;2023-11-19T00:05:10;100800.78;;;2.78;100.00
21779;BME280;11050;52.222;20.916;2023-11-19T00:07:37;100789.88;;;2.71;100.00
21779;BME280;11050;52.222;20.916;2023-11-19T00:10:11;100802.19;;;2.74;100.00
21779;BME280;11050;52.222;20.916;2023-11-19T00:12:43;100806.16;;;2.71;100.00
21779;BME280;11050;52.222;20.916;2023-11-19T00:15:10;100813.72;;;2.76;100.00
21779;BME280;11050;52.222;20.916;2023-11-19T00:17:45;100806.22;;;2.78;100.00
21779;BME280;11050;52.222;20.916;2023-11-19T00:20:20;100805.38;;;2.77;100.00
21779;BME280;11050;52.222;20.916;2023-11-19T00:22:49;100806.41;;;2.76;100.00
21779;BME280;11050;52.222;20.916;2023-11-19T00:25:20;100801.19;;;2.75;100.00
21779;BME280;11050;52.222;20.916;2023-11-19T00:27:50;100788.19;;;2.70;100.00
21779;BME280;11050;52.222;20.916;2023-11-19T00:30:16;100781.91;;;2.70;100.00
21779;BME280;11050;52.222;20.916;2023-11-19T00:32:43;100789.03;;;2.71;100.00
21779;BME280;11050;52.222;20.916;2023-11-19T00:35:09;100791.53;;;2.72;100.00
21779;BME280;11050;52.222;20.916;2023-11-19T00:37:39;100771.50;;;2.73;100.00
21779;BME280;11050;52.222;20.916;2023-11-19T00:40:06;100767.56;;;2.76;100.00
21779;BME280;11050;52.222;20.916;2023-11-19T00:42:32;100770.94;;;2.78;100.00
21779;BME280;11050;52.222;20.916;2023-11-19T00:44:58;100766.16;;;2.80;100.00
21779;BME280;11050;52.222;20.916;2023-11-19T00:47:24;100766.16;;;2.80;100.00
21779;BME280;11050;52.222;20.916;2023-11-19T00:49:49;100763.44;;;2.80;100.00
21779;BME280;11050;52.222;20.916;2023-11-19T00:52:16;100762.41;;;2.81;100.00
21779;BME280;11050;52.222;20.916;2023-11-19T00:54:42;100756.16;;;2.80;100.00
21779;BME280;11050;52.222;20.916;2023-11-19T00:57:08;100755.97;;;2.82;100.00
21779;BME280;11050;52.222;20.916;2023-11-19T00:59:34;100736.31;;;2.80;100.00
21779;BME280;11050;52.222;20.916;2023-11-19T01:02:00;100730.13;;;2.86;100.00
21779;BME280;11050;52.222;20.916;2023-11-19T01:04:34;100723.63;;;2.87;100.00
21779;BME280;11050;52.222;20.916;2023-11-19T01:07:02;100725.13;;;2.89;100.00
21779;BME280;11050;52.222;20.916;2023-11-19T01:09:34;100717.44;;;2.93;100.00
21779;BME280;11050;52.222;20.916;2023-11-19T01:12:02;100729.78;;;2.96;100.00
21779;BME280;11050;52.222;20.916;2023-11-19T01:14:28;100703.88;;;2.93;100.00
21779;BME280;11050;52.222;20.916;2023-11-19T01:16:54;100708.44;;;2.92;100.00
21779;BME280;11050;52.222;20.916;2023-11-19T01:19:22;100702.38;;;2.90;100.00
21779;BME280;11050;52.222;20.916;2023-11-19T01:21:49;100694.72;;;2.94;100.00
21779;BME280;11050;52.222;20.916;2023-11-19T01:24:15;100687.38;;;2.95;100.00
21779;BME280;11050;52.222;20.916;2023-11-19T01:26:41;100676.72;;;2.93;100.00
21779;BME280;11050;52.222;20.916;2023-11-19T01:29:16;100693.47;;;2.97;100.00
21779;BME280;11050;52.222;20.916;2023-11-19T01:31:45;100708.06;;;2.96;100.00
21779;BME280;11050;52.222;20.916;2023-11-19T01:34:12;100713.72;;;2.94;100.00
21779;BME280;11050;52.222;20.916;2023-11-19T01:36:38;100701.16;;;2.93;100.00
21779;BME280;11050;52.222;20.916;2023-11-19T01:39:04;100707.22;;;2.95;100.00
21779;BME280;11050;52.222;20.916;2023-11-19T01:41:37;100696.13;;;2.90;100.00
21779;BME280;11050;52.222;20.916;2023-11-19T01:44:06;100690.09;;;2.95;100.00
21779;BME280;11050;52.222;20.916;2023-11-19T01:46:32;100695.31;;;2.96;100.00
21779;BME280;11050;52.222;20.916;2023-11-19T01:48:59;100679.69;;;2.98;100.00
21779;BME280;11050;52.222;20.916;2023-11-19T01:51:27;100673.88;;;3.01;100.00
21779;BME280;11050;52.222;20.916;2023-11-19T01:53:53;100674.53;;;3.03;100.00
21779;BME280;11050;52.222;20.916;2023-11-19T01:56:21;100665.13;;;3.06;100.00
21779;BME280;11050;52.222;20.916;2023-11-19T01:58:49;100666.63;;;3.08;100.00
21779;BME280;11050;52.222;20.916;2023-11-19T02:01:16;100658.88;;;3.05;100.00
21779;BME280;11050;52.222;20.916;2023-11-19T02:03:42;100651.06;;;2.96;100.00
21779;BME280;11050;52.222;20.916;2023-11-19T02:06:08;100660.31;;;3.01;100.00
21779;BME280;11050;52.222;20.916;2023-11-19T02:08:36;100659.25;;;3.02;100.00
21779;BME280;11050;52.222;20.916;2023-11-19T02:11:02;100650.53;;;3.07;100.00
21779;BME280;11050;52.222;20.916;2023-11-19T02:13:28;100646.84;;;3.14;100.00
21779;BME280;11050;52.222;20.916;2023-11-19T02:15:54;100650.19;;;3.16;100.00
21779;BME280;11050;52.222;20.916;2023-11-19T02:18:26;100641.63;;;3.19;100.00
21779;BME280;11050;52.222;20.916;2023-11-19T02:20:57;100644.34;;;3.19;100.00
21779;BME280;11050;52.222;20.916;2023-11-19T02:23:26;100637.47;;;3.17;100.00
21779;BME280;11050;52.222;20.916;2023-11-19T02:28:32;100639.13;;;3.18;100.00
21779;BME280;11050;52.222;20.916;2023-11-19T02:30:58;100629.50;;;3.15;100.00
21779;BME280;11050;52.222;20.916;2023-11-19T02:33:25;100622.41;;;3.14;100.00
21779;BME280;11050;52.222;20.916;2023-11-19T02:35:50;100620.13;;;3.18;100.00
21779;BME280;11050;52.222;20.916;2023-11-19T02:38:16;100614.25;;;3.14;100.00
21779;BME280;11050;52.222;20.916;2023-11-19T02:40:42;100615.97;;;3.22;100.00
21779;BME280;11050;52.222;20.916;2023-11-19T02:43:08;100622.63;;;3.19;100.00
21779;BME280;11050;52.222;20.916;2023-11-19T02:45:34;100624.91;;;3.16;100.00
21779;BME280;11050;52.222;20.916;2023-11-19T02:47:59;100620.31;;;3.16;100.00
21779;BME280;11050;52.222;20.916;2023-11-19T02:50:28;100607.34;;;3.12;100.00
21779;BME280;11050;52.222;20.916;2023-11-19T02:52:55;100601.88;;;3.05;100.00
21779;BME280;11050;52.222;20.916;2023-11-19T02:55:22;100592.44;;;3.01;100.00
21779;BME280;11050;52.222;20.916;2023-11-19T02:57:50;100585.59;;;3.05;100.00
21779;BME280;11050;52.222;20.916;2023-11-19T03:00:21;100584.31;;;3.08;100.00
21779;BME280;11050;52.222;20.916;2023-11-19T03:02:51;100575.94;;;3.03;100.00
21779;BME280;11050;52.222;20.916;2023-11-19T03:05:40;100581.44;;;3.09;100.00
21779;BME280;11050;52.222;20.916;2023-11-19T03:08:06;100567.47;;;3.12;100.00
21779;BME280;11050;52.222;20.916;2023-11-19T03:10:32;100566.59;;;3.05;100.00
21779;BME280;11050;52.222;20.916;2023-11-19T03:13:00;100570.31;;;3.04;100.00
21779;BME280;11050;52.222;20.916;2023-11-19T03:15:27;100555.03;;;2.97;100.00
21779;BME280;11050;52.222;20.916;2023-11-19T03:17:53;100559.03;;;3.01;100.00
21779;BME280;11050;52.222;20.916;2023-11-19T03:20:19;100554.88;;;3.05;100.00
21779;BME280;11050;52.222;20.916;2023-11-19T03:22:46;100545.69;;;3.06;100.00
21779;BME280;11050;52.222;20.916;2023-11-19T03:25:12;100543.59;;;3.01;100.00
21779;BME280;11050;52.222;20.916;2023-11-19T03:27:39;100539.81;;;3.02;100.00
21779;BME280;11050;52.222;20.916;2023-11-19T03:30:08;100541.50;;;3.03;100.00
21779;BME280;11050;52.222;20.916;2023-11-19T03:32:38;100544.88;;;3.05;100.00
21779;BME280;11050;52.222;20.916;2023-11-19T03:35:05;100537.50;;;2.99;100.00
21779;BME280;11050;52.222;20.916;2023-11-19T03:37:34;100542.72;;;2.94;100.00
21779;BME280;11050;52.222;20.916;2023-11-19T03:40:01;100522.00;;;2.86;100.00
21779;BME280;11050;52.222;20.916;2023-11-19T03:42:27;100532.38;;;2.83;100.00
21779;BME280;11050;52.222;20.916;2023-11-19T03:44:53;100525.94;;;2.84;100.00
21779;BME280;11050;52.222;20.916;2023-11-19T03:47:20;100523.22;;;2.84;100.00
21779;BME280;11050;52.222;20.916;2023-11-19T03:49:52;100519.88;;;2.88;100.00
21779;BME280;11050;52.222;20.916;2023-11-19T03:52:18;100514.06;;;2.92;100.00
21779;BME280;11050;52.222;20.916;2023-11-19T03:54:45;100509.94;;;2.96;100.00
21779;BME280;11050;52.222;20.916;2023-11-19T03:57:14;100492.16;;;2.93;100.00
21779;BME280;11050;52.222;20.916;2023-11-19T03:59:41;100500.34;;;3.00;100.00
21779;BME280;11050;52.222;20.916;2023-11-19T04:02:07;100503.72;;;3.02;100.00
21779;BME280;11050;52.222;20.916;2023-11-19T04:04:33;100487.41;;;3.02;100.00
21779;BME280;11050;52.222;20.916;2023-11-19T04:07:00;100486.59;;;3.08;100.00
21779;BME280;11050;52.222;20.916;2023-11-19T04:09:26;100486.00;;;3.12;100.00
21779;BME280;11050;52.222;20.916;2023-11-19T04:11:52;100477.00;;;3.12;100.00
21779;BME280;11050;52.222;20.916;2023-11-19T04:14:18;100470.94;;;3.10;100.00
21779;BME280;11050;52.222;20.916;2023-11-19T04:16:44;100465.50;;;3.10;100.00
21779;BME280;11050;52.222;20.916;2023-11-19T04:19:11;100465.94;;;3.13;100.00
21779;BME280;11050;52.222;20.916;2023-11-19T04:21:40;100462.81;;;3.10;100.00
21779;BME280;11050;52.222;20.916;2023-11-19T04:24:08;100461.97;;;3.09;100.00
21779;BME280;11050;52.222;20.916;2023-11-19T04:26:34;100457.38;;;3.10;100.00
21779;BME280;11050;52.222;20.916;2023-11-19T04:28:59;100449.44;;;3.08;100.00
21779;BME280;11050;52.222;20.916;2023-11-19T04:31:29;100438.34;;;3.03;100.00
21779;BME280;11050;52.222;20.916;2023-11-19T04:33:57;100445.84;;;3.01;100.00
21779;BME280;11050;52.222;20.916;2023-11-19T04:36:22;100444.59;;;3.04;100.00
21779;BME280;11050;52.222;20.916;2023-11-19T04:38:50;100439.41;;;3.09;100.00
21779;BME280;11050;52.222;20.916;2023-11-19T04:41:16;100425.22;;;3.07;100.00
21779;BME280;11050;52.222;20.916;2023-11-19T04:43:41;100432.72;;;3.05;100.00
21779;BME280;11050;52.222;20.916;2023-11-19T04:46:09;100436.88;;;3.01;100.00
21779;BME280;11050;52.222;20.916;2023-11-19T04:48:35;100442.50;;;2.99;100.00
21779;BME280;11050;52.222;20.916;2023-11-19T04:51:01;100435.38;;;2.98;100.00
21779;BME280;11050;52.222;20.916;2023-11-19T04:53:26;100425.16;;;3.00;100.00
21779;BME280;11050;52.222;20.916;2023-11-19T04:55:52;100412.22;;;3.02;100.00
21779;BME280;11050;52.222;20.916;2023-11-19T04:58:17;100417.22;;;2.99;100.00
21779;BME280;11050;52.222;20.916;2023-11-19T05:00:44;100415.56;;;2.98;100.00
21779;BME280;11050;52.222;20.916;2023-11-19T05:03:10;100412.66;;;2.99;100.00
21779;BME280;11050;52.222;20.916;2023-11-19T05:05:36;100412.22;;;2.96;100.00
21779;BME280;11050;52.222;20.916;2023-11-19T05:08:02;100408.88;;;3.00;100.00
21779;BME280;11050;52.222;20.916;2023-11-19T05:10:28;100402.81;;;2.98;100.00
21779;BME280;11050;52.222;20.916;2023-11-19T05:12:53;100394.66;;;2.92;100.00
21779;BME280;11050;52.222;20.916;2023-11-19T05:15:21;100391.53;;;2.88;100.00
21779;BME280;11050;52.222;20.916;2023-11-19T05:17:47;100388.81;;;2.88;100.00
21779;BME280;11050;52.222;20.916;2023-11-19T05:20:13;100390.25;;;2.84;100.00
21779;BME280;11050;52.222;20.916;2023-11-19T05:22:41;100379.56;;;2.76;100.00
21779;BME280;11050;52.222;20.916;2023-11-19T05:25:07;100380.81;;;2.80;100.00
21779;BME280;11050;52.222;20.916;2023-11-19T05:27:37;100373.09;;;2.77;100.00
21779;BME280;11050;52.222;20.916;2023-11-19T05:30:05;100374.94;;;2.70;100.00
21779;BME280;11050;52.222;20.916;2023-11-19T05:32:33;100377.91;;;2.75;100.00
21779;BME280;11050;52.222;20.916;2023-11-19T05:34:59;100371.41;;;2.76;100.00
21779;BME280;11050;52.222;20.916;2023-11-19T05:37:24;100366.19;;;2.74;100.00
21779;BME280;11050;52.222;20.916;2023-11-19T05:39:51;100369.97;;;2.80;100.00
21779;BME280;11050;52.222;20.916;2023-11-19T05:42:16;100379.16;;;2.79;100.00
21779;BME280;11050;52.222;20.916;2023-11-19T05:44:42;100368.69;;;2.76;100.00
21779;BME280;11050;52.222;20.916;2023-11-19T05:47:08;100368.22;;;2.66;100.00
21779;BME280;11050;52.222;20.916;2023-11-19T05:49:34;100364.91;;;2.64;100.00
21779;BME280;11050;52.222;20.916;2023-11-19T05:51:59;100363.66;;;2.66;100.00
21779;BME280;11050;52.222;20.916;2023-11-19T05:54:27;100361.72;;;2.60;100.00
21779;BME280;11050;52.222;20.916;2023-11-19T05:56:52;100355.88;;;2.57;100.00
21779;BME280;11050;52.222;20.916;2023-11-19T05:59:20;100359.03;;;2.60;100.00
21779;BME280;11050;52.222;20.916;2023-11-19T06:01:46;100350.72;;;2.62;100.00
21779;BME280;11050;52.222;20.916;2023-11-19T06:04:12;100368.00;;;2.61;100.00
21779;BME280;11050;52.222;20.916;2023-11-19T06:06:38;100362.16;;;2.57;100.00
21779;BME280;11050;52.222;20.916;2023-11-19T06:09:04;100356.94;;;2.62;100.00
21779;BME280;11050;52.222;20.916;2023-11-19T06:11:31;100357.38;;;2.66;100.00
21779;BME280;11050;52.222;20.916;2023-11-19T06:13:56;100355.72;;;2.65;100.00
21779;BME280;11050;52.222;20.916;2023-11-19T06:16:23;100364.91;;;2.70;100.00
21779;BME280;11050;52.222;20.916;2023-11-19T06:18:49;100355.56;;;2.73;100.00
21779;BME280;11050;52.222;20.916;2023-11-19T06:21:14;100350.34;;;2.71;100.00
21779;BME280;11050;52.222;20.916;2023-11-19T06:23:40;100343.00;;;2.72;100.00
21779;BME280;11050;52.222;20.916;2023-11-19T06:26:06;100340.94;;;2.74;100.00
21779;BME280;11050;52.222;20.916;2023-11-19T06:28:32;100337.19;;;2.75;100.00
21779;BME280;11050;52.222;20.916;2023-11-19T06:30:57;100344.50;;;2.81;100.00
21779;BME280;11050;52.222;20.916;2023-11-19T06:33:24;100338.47;;;2.79;100.00
21779;BME280;11050;52.222;20.916;2023-11-19T06:35:50;100336.13;;;2.76;100.00
21779;BME280;11050;52.222;20.916;2023-11-19T06:38:16;100318.59;;;2.72;100.00
21779;BME280;11050;52.222;20.916;2023-11-19T06:40:41;100318.16;;;2.68;100.00
21779;BME280;11050;52.222;20.916;2023-11-19T06:43:07;100312.09;;;2.66;100.00
21779;BME280;11050;52.222;20.916;2023-11-19T06:45:36;100308.38;;;2.74;100.00
21779;BME280;11050;52.222;20.916;2023-11-19T06:48:05;100310.06;;;2.75;100.00
21779;BME280;11050;52.222;20.916;2023-11-19T06:50:31;100306.09;;;2.77;100.00
21779;BME280;11050;52.222;20.916;2023-11-19T06:52:58;100308.16;;;2.75;100.00
21779;BME280;11050;52.222;20.916;2023-11-19T06:55:23;100295.63;;;2.68;100.00
21779;BME280;11050;52.222;20.916;2023-11-19T06:57:49;100305.03;;;2.72;100.00
21779;BME280;11050;52.222;20.916;2023-11-19T07:00:15;100300.66;;;2.77;100.00
21779;BME280;11050;52.222;20.916;2023-11-19T07:02:42;100292.09;;;2.74;100.00
21779;BME280;11050;52.222;20.916;2023-11-19T07:05:10;100290.66;;;2.71;100.00
21779;BME280;11050;52.222;20.916;2023-11-19T07:07:37;100287.28;;;2.69;100.00
21779;BME280;11050;52.222;20.916;2023-11-19T07:10:03;100287.69;;;2.60;100.00
21779;BME280;11050;52.222;20.916;2023-11-19T07:12:30;100287.81;;;2.45;100.00
21779;BME280;11050;52.222;20.916;2023-11-19T07:14:56;100281.31;;;2.40;100.00
21779;BME280;11050;52.222;20.916;2023-11-19T07:17:22;100277.94;;;2.31;100.00
21779;BME280;11050;52.222;20.916;2023-11-19T07:19:50;100270.47;;;2.33;100.00
21779;BME280;11050;52.222;20.916;2023-11-19T07:22:16;100275.47;;;2.36;100.00
21779;BME280;11050;52.222;20.916;2023-11-19T07:24:42;100277.94;;;2.31;100.00
21779;BME280;11050;52.222;20.916;2023-11-19T07:27:08;100273.38;;;2.32;100.00
21779;BME280;11050;52.222;20.916;2023-11-19T07:29:35;100276.31;;;2.37;100.00
21779;BME280;11050;52.222;20.916;2023-11-19T07:32:01;100275.72;;;2.41;100.00
21779;BME280;11050;52.222;20.916;2023-11-19T07:34:30;100270.09;;;2.49;100.00
21779;BME280;11050;52.222;20.916;2023-11-19T07:36:56;100261.81;;;2.64;100.00
21779;BME280;11050;52.222;20.916;2023-11-19T07:39:28;100260.81;;;2.78;100.00
21779;BME280;11050;52.222;20.916;2023-11-19T07:41:54;100259.34;;;2.88;100.00
21779;BME280;11050;52.222;20.916;2023-11-19T07:44:20;100251.44;;;2.87;100.00
21779;BME280;11050;52.222;20.916;2023-11-19T07:46:47;100245.59;;;2.97;100.00
21779;BME280;11050;52.222;20.916;2023-11-19T07:49:13;100248.34;;;3.10;100.00
21779;BME280;11050;52.222;20.916;2023-11-19T07:51:40;100245.84;;;3.21;100.00
21779;BME280;11050;52.222;20.916;2023-11-19T07:54:06;100234.34;;;3.32;100.00
21779;BME280;11050;52.222;20.916;2023-11-19T07:56:35;100240.66;;;3.39;100.00
21779;BME280;11050;52.222;20.916;2023-11-19T07:59:03;100224.94;;;3.41;100.00
21779;BME280;11050;52.222;20.916;2023-11-19T08:01:29;100226.00;;;3.40;100.00
21779;BME280;11050;52.222;20.916;2023-11-19T08:03:55;100225.78;;;3.42;100.00
21779;BME280;11050;52.222;20.916;2023-11-19T08:06:20;100215.78;;;3.42;100.00
21779;BME280;11050;52.222;20.916;2023-11-19T08:08:46;100223.47;;;3.45;100.00
21779;BME280;11050;52.222;20.916;2023-11-19T08:11:13;100214.53;;;3.45;100.00
21779;BME280;11050;52.222;20.916;2023-11-19T08:13:40;100219.53;;;3.48;100.00
21779;BME280;11050;52.222;20.916;2023-11-19T08:16:07;100220.78;;;3.45;100.00
21779;BME280;11050;52.222;20.916;2023-11-19T08:18:32;100212.41;;;3.53;100.00
21779;BME280;11050;52.222;20.916;2023-11-19T08:20:58;100208.22;;;3.64;100.00
21779;BME280;11050;52.222;20.916;2023-11-19T08:23:26;100196.72;;;3.68;100.00
21779;BME280;11050;52.222;20.916;2023-11-19T08:25:51;100196.09;;;3.73;100.00
21779;BME280;11050;52.222;20.916;2023-11-19T08:28:18;100186.28;;;3.65;100.00
21779;BME280;11050;52.222;20.916;2023-11-19T08:30:43;100187.94;;;3.66;100.00
21779;BME280;11050;52.222;20.916;2023-11-19T08:33:10;100185.63;;;3.70;100.00
21779;BME280;11050;52.222;20.916;2023-11-19T08:35:35;100191.44;;;3.86;100.00
21779;BME280;11050;52.222;20.916;2023-11-19T08:38:01;100182.03;;;3.96;100.00
21779;BME280;11050;52.222;20.916;2023-11-19T08:40:27;100170.72;;;3.99;100.00
21779;BME280;11050;52.222;20.916;2023-11-19T08:42:53;100179.88;;;4.04;100.00
21779;BME280;11050;52.222;20.916;2023-11-19T08:45:19;100183.47;;;3.98;100.00
21779;BME280;11050;52.222;20.916;2023-11-19T08:47:45;100181.19;;;3.88;100.00
21779;BME280;11050;52.222;20.916;2023-11-19T08:50:11;100184.34;;;3.85;100.00
21779;BME280;11050;52.222;20.916;2023-11-19T08:52:37;100168.03;;;3.92;100.00
21779;BME280;11050;52.222;20.916;2023-11-19T08:55:04;100169.91;;;3.92;100.00
21779;BME280;11050;52.222;20.916;2023-11-19T08:57:35;100165.88;;;4.07;100.00
21779;BME280;11050;52.222;20.916;2023-11-19T09:00:01;100165.78;;;4.27;100.00
21779;BME280;11050;52.222;20.916;2023-11-19T09:02:28;100158.38;;;4.40;100.00
21779;BME280;11050;52.222;20.916;2023-11-19T09:04:54;100148.91;;;4.49;100.00
21779;BME280;11050;52.222;20.916;2023-11-19T09:07:20;100141.53;;;4.56;100.00
21779;BME280;11050;52.222;20.916;2023-11-19T09:09:46;100141.66;;;4.68;100.00
21779;BME280;11050;52.222;20.916;2023-11-19T09:12:12;100132.25;;;4.70;100.00
21779;BME280;11050;52.222;20.916;2023-11-19T09:14:39;100123.84;;;4.72;100.00
21779;BME280;11050;52.222;20.916;2023-11-19T09:17:04;100125.72;;;4.71;100.00
21779;BME280;11050;52.222;20.916;2023-11-19T09:19:32;100117.56;;;4.71;100.00
21779;BME280;11050;52.222;20.916;2023-11-19T09:21:59;100122.41;;;4.69;100.00
21779;BME280;11050;52.222;20.916;2023-11-19T09:24:24;100108.38;;;4.72;100.00
21779;BME280;11050;52.222;20.916;2023-11-19T09:26:50;100114.22;;;4.69;100.00
21779;BME280;11050;52.222;20.916;2023-11-19T09:29:16;100105.97;;;4.58;100.00
21779;BME280;11050;52.222;20.916;2023-11-19T09:31:41;100120.91;;;4.42;100.00
21779;BME280;11050;52.222;20.916;2023-11-19T09:34:07;100113.41;;;4.38;100.00
21779;BME280;11050;52.222;20.916;2023-11-19T09:36:33;100099.03;;;4.31;100.00
21779;BME280;11050;52.222;20.916;2023-11-19T09:38:59;100104.47;;;4.31;100.00
21779;BME280;11050;52.222;20.916;2023-11-19T09:41:27;100100.25;;;4.35;100.00
21779;BME280;11050;52.222;20.916;2023-11-19T09:43:53;100096.53;;;4.29;100.00
21779;BME280;11050;52.222;20.916;2023-11-19T09:46:20;100094.03;;;4.28;100.00
21779;BME280;11050;52.222;20.916;2023-11-19T09:48:46;100090.25;;;4.29;100.00
21779;BME280;11050;52.222;20.916;2023-11-19T09:51:14;100089.22;;;4.30;100.00
21779;BME280;11050;52.222;20.916;2023-11-19T09:53:40;100081.53;;;4.20;100.00
21779;BME280;11050;52.222;20.916;2023-11-19T09:56:06;100079.47;;;4.09;100.00
21779;BME280;11050;52.222;20.916;2023-11-19T09:58:34;100081.78;;;4.12;100.00
21779;BME280;11050;52.222;20.916;2023-11-19T10:01:00;100078.81;;;4.14;100.00
21779;BME280;11050;52.222;20.916;2023-11-19T10:03:33;100065.22;;;4.14;100.00
21779;BME280;11050;52.222;20.916;2023-11-19T10:06:01;100058.56;;;4.10;100.00
21779;BME280;11050;52.222;20.916;2023-11-19T10:08:28;100047.75;;;3.97;100.00
21779;BME280;11050;52.222;20.916;2023-11-19T10:10:54;100047.06;;;4.08;100.00
21779;BME280;11050;52.222;20.916;2023-11-19T10:13:26;100050.94;;;4.25;100.00
21779;BME280;11050;52.222;20.916;2023-11-19T10:15:55;100043.56;;;4.32;100.00
21779;BME280;11050;52.222;20.916;2023-11-19T10:18:25;100035.38;;;4.32;100.00
21779;BME280;11050;52.222;20.916;2023-11-19T10:20:52;100031.19;;;4.36;100.00
21779;BME280;11050;52.222;20.916;2023-11-19T10:23:19;100033.75;;;4.31;100.00
21779;BME280;11050;52.222;20.916;2023-11-19T10:25:44;100030.28;;;4.17;100.00
21779;BME280;11050;52.222;20.916;2023-11-19T10:28:10;100027.63;;;4.11;100.00
21779;BME280;11050;52.222;20.916;2023-11-19T10:30:36;100028.22;;;4.13;100.00
21779;BME280;11050;52.222;20.916;2023-11-19T10:33:13;100021.28;;;4.17;100.00
21779;BME280;11050;52.222;20.916;2023-11-19T10:35:57;100015.50;;;4.07;100.00
21779;BME280;11050;52.222;20.916;2023-11-19T10:38:24;100005.50;;;4.01;100.00
21779;BME280;11050;52.222;20.916;2023-11-19T10:40:52;100001.31;;;3.98;100.00
21779;BME280;11050;52.222;20.916;2023-11-19T10:43:21;100004.66;;;4.00;100.00
21779;BME280;11050;52.222;20.916;2023-11-19T10:45:51;99991.69;;;4.02;100.00
21779;BME280;11050;52.222;20.916;2023-11-19T10:48:18;99986.25;;;4.02;100.00
21779;BME280;11050;52.222;20.916;2023-11-19T10:50:46;99976.59;;;4.06;100.00
21779;BME280;11050;52.222;20.916;2023-11-19T10:53:15;99981.59;;;4.09;100.00
21779;BME280;11050;52.222;20.916;2023-11-19T10:55:47;99969.91;;;4.09;100.00
21779;BME280;11050;52.222;20.916;2023-11-19T10:58:16;99961.75;;;4.09;100.00
21779;BME280;11050;52.222;20.916;2023-11-19T11:00:50;99951.91;;;4.08;100.00
21779;BME280;11050;52.222;20.916;2023-11-19T11:03:20;99950.03;;;4.08;100.00
21779;BME280;11050;52.222;20.916;2023-11-19T11:05:51;99941.31;;;4.00;100.00
21779;BME280;11050;52.222;20.916;2023-11-19T11:08:19;99938.19;;;3.96;100.00
21779;BME280;11050;52.222;20.916;2023-11-19T11:11:05;99917.38;;;3.83;100.00
21779;BME280;11050;52.222;20.916;2023-11-19T11:13:32;99926.75;;;3.88;100.00
21779;BME280;11050;52.222;20.916;2023-11-19T11:15:59;99918.00;;;3.85;100.00
21779;BME280;11050;52.222;20.916;2023-11-19T11:18:26;99914.03;;;3.81;100.00
21779;BME280;11050;52.222;20.916;2023-11-19T11:21:08;99913.44;;;3.79;100.00
21779;BME280;11050;52.222;20.916;2023-11-19T11:24:16;99898.19;;;3.78;100.00
21779;BME280;11050;52.222;20.916;2023-11-19T11:27:34;99898.59;;;3.75;100.00
21779;BME280;11050;52.222;20.916;2023-11-19T11:30:30;99889.84;;;3.73;100.00
21779;BME280;11050;52.222;20.916;2023-11-19T11:36:21;99874.00;;;3.70;100.00
21779;BME280;11050;52.222;20.916;2023-11-19T11:38:49;99882.50;;;3.80;100.00
21779;BME280;11050;52.222;20.916;2023-11-19T11:41:23;99871.34;;;3.88;100.00
21779;BME280;11050;52.222;20.916;2023-11-19T11:43:53;99866.75;;;3.89;100.00
21779;BME280;11050;52.222;20.916;2023-11-19T11:49:05;99850.66;;;3.88;100.00
21779;BME280;11050;52.222;20.916;2023-11-19T11:57:07;99836.81;;;3.96;100.00
21779;BME280;11050;52.222;20.916;2023-11-19T12:02:17;99824.59;;;4.05;100.00
21779;BME280;11050;52.222;20.916;2023-11-19T12:04:52;99822.28;;;4.02;100.00
21779;BME280;11050;52.222;20.916;2023-11-19T12:07:21;99813.09;;;4.03;100.00
21779;BME280;11050;52.222;20.916;2023-11-19T12:10:04;99809.91;;;4.06;100.00
21779;BME280;11050;52.222;20.916;2023-11-19T12:12:32;99809.31;;;4.04;100.00
21779;BME280;11050;52.222;20.916;2023-11-19T12:20:06;99793.75;;;3.93;100.00
21779;BME280;11050;52.222;20.916;2023-11-19T12:22:41;99775.56;;;3.93;100.00
21779;BME280;11050;52.222;20.916;2023-11-19T12:25:10;99782.44;;;3.96;100.00
21779;BME280;11050;52.222;20.916;2023-11-19T12:27:44;99777.81;;;3.96;100.00
21779;BME280;11050;52.222;20.916;2023-11-19T12:30:11;99780.00;;;3.88;100.00
21779;BME280;11050;52.222;20.916;2023-11-19T12:32:41;99768.66;;;3.91;100.00
21779;BME280;11050;52.222;20.916;2023-11-19T12:35:09;99764.44;;;3.95;100.00
21779;BME280;11050;52.222;20.916;2023-11-19T12:37:48;99768.84;;;3.96;100.00
21779;BME280;11050;52.222;20.916;2023-11-19T12:40:24;99763.84;;;3.93;100.00
21779;BME280;11050;52.222;20.916;2023-11-19T12:42:52;99763.69;;;3.88;100.00
21779;BME280;11050;52.222;20.916;2023-11-19T12:45:22;99767.25;;;3.88;100.00
21779;BME280;11050;52.222;20.916;2023-11-19T12:47:49;99756.56;;;3.86;100.00
21779;BME280;11050;52.222;20.916;2023-11-19T12:50:18;99768.97;;;3.82;100.00
21779;BME280;11050;52.222;20.916;2023-11-19T12:52:58;99764.66;;;3.75;100.00
21779;BME280;11050;52.222;20.916;2023-11-19T12:55:29;99761.53;;;3.71;100.00
21779;BME280;11050;52.222;20.916;2023-11-19T12:57:56;99761.72;;;3.76;100.00
21779;BME280;11050;52.222;20.916;2023-11-19T13:00:24;99763.59;;;3.76;100.00
21779;BME280;11050;52.222;20.916;2023-11-19T13:02:56;99761.34;;;3.73;100.00
21779;BME280;11050;52.222;20.916;2023-11-19T13:08:02;99755.28;;;3.71;100.00